sensor_id;sensor_type;location;lat;lon;timestamp;pressure;altitude;pressure_sealevel;temperature;humidity
51289;BME280;37372;52.294;5.152;2023-06-22T00:00:49;101948.38;;;17.50;93.54
51289;BME280;37372;52.294;5.152;2023-06-22T00:03:14;101948.63;;;17.48;92.75
51289;BME280;37372;52.294;5.152;2023-06-22T00:05:40;101939.22;;;17.49;92.95
51289;BME280;37372;52.294;5.152;2023-06-22T00:08:06;101938.63;;;17.47;92.67
51289;BME280;37372;52.294;5.152;2023-06-22T00:10:32;101956.38;;;17.46;92.92
51289;BME280;37372;52.294;5.152;2023-06-22T00:12:57;101941.31;;;17.42;92.82
51289;BME280;37372;52.294;5.152;2023-06-22T00:15:23;101945.66;;;17.38;93.41
51289;BME280;37372;52.294;5.152;2023-06-22T00:17:51;101941.72;;;17.34;93.70
51289;BME280;37372;52.294;5.152;2023-06-22T00:20:17;101943.28;;;17.30;93.68
51289;BME280;37372;52.294;5.152;2023-06-22T00:22:44;101942.97;;;17.26;93.84
51289;BME280;37372;52.294;5.152;2023-06-22T00:25:10;101940.94;;;17.22;93.79
51289;BME280;37372;52.294;5.152;2023-06-22T00:27:36;101938.06;;;17.17;93.74
51289;BME280;37372;52.294;5.152;2023-06-22T00:30:05;101943.00;;;17.15;94.33
51289;BME280;37372;52.294;5.152;2023-06-22T00:32:30;101944.09;;;17.14;94.92
51289;BME280;37372;52.294;5.152;2023-06-22T00:34:56;101941.81;;;17.11;94.66
51289;BME280;37372;52.294;5.152;2023-06-22T00:37:21;101941.22;;;17.09;94.86
51289;BME280;37372;52.294;5.152;2023-06-22T00:39:51;101940.88;;;17.05;94.74
51289;BME280;37372;52.294;5.152;2023-06-22T00:42:16;101941.13;;;17.03;94.81
51289;BME280;37372;52.294;5.152;2023-06-22T00:44:42;101945.81;;;17.03;94.60
51289;BME280;37372;52.294;5.152;2023-06-22T00:47:08;101941.38;;;17.02;94.46
51289;BME280;37372;52.294;5.152;2023-06-22T00:49:34;101935.22;;;17.00;94.84
51289;BME280;37372;52.294;5.152;2023-06-22T00:52:00;101930.53;;;17.00;95.26
51289;BME280;37372;52.294;5.152;2023-06-22T00:54:27;101925.47;;;16.97;95.81
51289;BME280;37372;52.294;5.152;2023-06-22T00:56:54;101921.50;;;16.93;96.02
51289;BME280;37372;52.294;5.152;2023-06-22T00:59:21;101917.06;;;16.92;96.90
51289;BME280;37372;52.294;5.152;2023-06-22T01:01:48;101919.25;;;16.90;96.58
51289;BME280;37372;52.294;5.152;2023-06-22T01:04:13;101913.13;;;16.88;96.85
51289;BME280;37372;52.294;5.152;2023-06-22T01:06:45;101913.13;;;16.88;96.67
51289;BME280;37372;52.294;5.152;2023-06-22T01:09:19;101910.34;;;16.88;96.76
51289;BME280;37372;52.294;5.152;2023-06-22T01:11:54;101914.19;;;16.87;96.40
51289;BME280;37372;52.294;5.152;2023-06-22T01:14:32;101913.59;;;16.85;96.93
51289;BME280;37372;52.294;5.152;2023-06-22T01:17:01;101913.84;;;16.84;96.92
51289;BME280;37372;52.294;5.152;2023-06-22T01:19:44;101919.38;;;16.84;97.00
51289;BME280;37372;52.294;5.152;2023-06-22T01:22:15;101917.97;;;16.81;97.14
51289;BME280;37372;52.294;5.152;2023-06-22T01:24:48;101923.97;;;16.78;97.55
51289;BME280;37372;52.294;5.152;2023-06-22T01:27:38;101921.72;;;16.75;97.63
51289;BME280;37372;52.294;5.152;2023-06-22T01:30:07;101921.59;;;16.70;98.39
51289;BME280;37372;52.294;5.152;2023-06-22T01:32:36;101920.63;;;16.64;98.22
51289;BME280;37372;52.294;5.152;2023-06-22T01:35:05;101913.66;;;16.62;98.61
51289;BME280;37372;52.294;5.152;2023-06-22T01:37:33;101908.34;;;16.60;98.31
51289;BME280;37372;52.294;5.152;2023-06-22T01:40:00;101904.97;;;16.58;98.57
51289;BME280;37372;52.294;5.152;2023-06-22T01:42:26;101914.63;;;16.56;99.11
51289;BME280;37372;52.294;5.152;2023-06-22T01:44:53;101910.66;;;16.51;98.86
51289;BME280;37372;52.294;5.152;2023-06-22T01:47:20;101919.22;;;16.50;99.08
51289;BME280;37372;52.294;5.152;2023-06-22T01:49:46;101913.69;;;16.50;99.13
51289;BME280;37372;52.294;5.152;2023-06-22T01:52:12;101916.19;;;16.51;99.07
51289;BME280;37372;52.294;5.152;2023-06-22T01:54:39;101920.91;;;16.51;99.19
51289;BME280;37372;52.294;5.152;2023-06-22T01:57:05;101916.19;;;16.51;99.12
51289;BME280;37372;52.294;5.152;2023-06-22T01:59:38;101914.00;;;16.53;99.59
51289;BME280;37372;52.294;5.152;2023-06-22T02:02:10;101902.94;;;16.53;99.47
51289;BME280;37372;52.294;5.152;2023-06-22T02:04:48;101906.69;;;16.47;99.32
51289;BME280;37372;52.294;5.152;2023-06-22T02:07:17;101908.28;;;16.43;99.63
51289;BME280;37372;52.294;5.152;2023-06-22T02:09:46;101897.19;;;16.43;100.00
51289;BME280;37372;52.294;5.152;2023-06-22T02:12:17;101900.19;;;16.42;99.57
51289;BME280;37372;52.294;5.152;2023-06-22T02:14:44;101904.88;;;16.41;100.00
51289;BME280;37372;52.294;5.152;2023-06-22T02:17:13;101903.81;;;16.42;100.00
51289;BME280;37372;52.294;5.152;2023-06-22T02:19:41;101898.50;;;16.41;100.00
51289;BME280;37372;52.294;5.152;2023-06-22T02:22:06;101888.28;;;16.41;100.00
51289;BME280;37372;52.294;5.152;2023-06-22T02:24:32;101894.31;;;16.38;100.00
51289;BME280;37372;52.294;5.152;2023-06-22T02:26:59;101891.16;;;16.35;100.00
51289;BME280;37372;52.294;5.152;2023-06-22T02:29:26;101890.34;;;16.34;100.00
51289;BME280;37372;52.294;5.152;2023-06-22T02:31:53;101895.03;;;16.34;100.00
51289;BME280;37372;52.294;5.152;2023-06-22T02:34:18;101901.53;;;16.39;100.00
51289;BME280;37372;52.294;5.152;2023-06-22T02:36:48;101889.03;;;16.37;100.00
51289;BME280;37372;52.294;5.152;2023-06-22T02:41:44;101894.31;;;16.38;100.00
51289;BME280;37372;52.294;5.152;2023-06-22T02:44:10;101898.16;;;16.37;100.00
51289;BME280;37372;52.294;5.152;2023-06-22T02:46:36;101893.72;;;16.36;100.00
51289;BME280;37372;52.294;5.152;2023-06-22T02:49:01;101890.59;;;16.33;100.00
51289;BME280;37372;52.294;5.152;2023-06-22T02:51:27;101888.91;;;16.32;100.00
51289;BME280;37372;52.294;5.152;2023-06-22T02:53:52;101880.00;;;16.30;100.00
51289;BME280;37372;52.294;5.152;2023-06-22T02:56:21;101886.59;;;16.29;100.00
51289;BME280;37372;52.294;5.152;2023-06-22T02:58:50;101885.19;;;16.26;100.00
51289;BME280;37372;52.294;5.152;2023-06-22T03:01:19;101889.03;;;16.25;100.00
51289;BME280;37372;52.294;5.152;2023-06-22T03:03:49;101888.78;;;16.27;100.00
51289;BME280;37372;52.294;5.152;2023-06-22T03:06:15;101884.59;;;16.24;100.00
51289;BME280;37372;52.294;5.152;2023-06-22T03:08:40;101885.69;;;16.23;100.00
51289;BME280;37372;52.294;5.152;2023-06-22T03:11:07;101883.97;;;16.22;100.00
51289;BME280;37372;52.294;5.152;2023-06-22T03:13:33;101876.16;;;16.19;100.00
51289;BME280;37372;52.294;5.152;2023-06-22T03:15:58;101882.16;;;16.16;100.00
51289;BME280;37372;52.294;5.152;2023-06-22T03:18:24;101877.47;;;16.16;100.00
51289;BME280;37372;52.294;5.152;2023-06-22T03:20:49;101879.19;;;16.17;100.00
51289;BME280;37372;52.294;5.152;2023-06-22T03:23:15;101879.19;;;16.17;100.00
51289;BME280;37372;52.294;5.152;2023-06-22T03:25:42;101877.59;;;16.21;100.00
51289;BME280;37372;52.294;5.152;2023-06-22T03:28:09;101892.06;;;16.23;100.00
51289;BME280;37372;52.294;5.152;2023-06-22T03:30:34;101886.53;;;16.23;100.00
51289;BME280;37372;52.294;5.152;2023-06-22T03:32:59;101889.03;;;16.25;100.00
51289;BME280;37372;52.294;5.152;2023-06-22T03:35:25;101889.03;;;16.25;100.00
51289;BME280;37372;52.294;5.152;2023-06-22T03:37:50;101884.34;;;16.25;100.00
51289;BME280;37372;52.294;5.152;2023-06-22T03:40:16;101874.09;;;16.26;100.00
51289;BME280;37372;52.294;5.152;2023-06-22T03:42:41;101869.41;;;16.27;100.00
51289;BME280;37372;52.294;5.152;2023-06-22T03:45:07;101871.69;;;16.30;100.00
51289;BME280;37372;52.294;5.152;2023-06-22T03:47:33;101861.81;;;16.34;100.00
51289;BME280;37372;52.294;5.152;2023-06-22T03:49:59;101869.13;;;16.40;100.00
51289;BME280;37372;52.294;5.152;2023-06-22T03:52:24;101870.81;;;16.41;100.00
51289;BME280;37372;52.294;5.152;2023-06-22T03:54:50;101871.44;;;16.43;100.00
51289;BME280;37372;52.294;5.152;2023-06-22T03:57:16;101872.25;;;16.43;100.00
51289;BME280;37372;52.294;5.152;2023-06-22T03:59:41;101876.72;;;16.44;100.00
51289;BME280;37372;52.294;5.152;2023-06-22T04:02:06;101873.84;;;16.39;100.00
51289;BME280;37372;52.294;5.152;2023-06-22T04:04:32;101864.44;;;16.40;100.00
51289;BME280;37372;52.294;5.152;2023-06-22T04:06:59;101875.50;;;16.40;100.00
51289;BME280;37372;52.294;5.152;2023-06-22T04:09:24;101867.44;;;16.39;100.00
51289;BME280;37372;52.294;5.152;2023-06-22T04:11:49;101873.25;;;16.37;100.00
51289;BME280;37372;52.294;5.152;2023-06-22T04:14:15;101866.88;;;16.37;100.00
51289;BME280;37372;52.294;5.152;2023-06-22T04:16:40;101867.72;;;16.37;100.00
51289;BME280;37372;52.294;5.152;2023-06-22T04:19:06;101867.44;;;16.39;100.00
51289;BME280;37372;52.294;5.152;2023-06-22T04:21:32;101860.34;;;16.43;100.00
51289;BME280;37372;52.294;5.152;2023-06-22T04:23:57;101857.66;;;16.48;100.00
51289;BME280;37372;52.294;5.152;2023-06-22T04:26:23;101863.81;;;16.50;100.00
51289;BME280;37372;52.294;5.152;2023-06-22T04:28:48;101857.78;;;16.53;100.00
51289;BME280;37372;52.294;5.152;2023-06-22T04:31:17;101864.25;;;16.59;100.00
51289;BME280;37372;52.294;5.152;2023-06-22T04:33:44;101863.03;;;16.66;100.00
51289;BME280;37372;52.294;5.152;2023-06-22T04:36:10;101864.00;;;16.72;100.00
51289;BME280;37372;52.294;5.152;2023-06-22T04:38:38;101864.59;;;16.74;100.00
51289;BME280;37372;52.294;5.152;2023-06-22T04:41:04;101854.13;;;16.76;100.00
51289;BME280;37372;52.294;5.152;2023-06-22T04:43:29;101855.06;;;16.82;100.00
51289;BME280;37372;52.294;5.152;2023-06-22T04:45:56;101848.69;;;16.81;100.00
51289;BME280;37372;52.294;5.152;2023-06-22T04:48:29;101857.91;;;16.87;100.00
51289;BME280;37372;52.294;5.152;2023-06-22T04:50:59;101868.50;;;16.90;100.00
51289;BME280;37372;52.294;5.152;2023-06-22T04:53:29;101862.72;;;16.91;100.00
51289;BME280;37372;52.294;5.152;2023-06-22T04:55:55;101856.69;;;16.94;100.00
51289;BME280;37372;52.294;5.152;2023-06-22T04:58:21;101866.69;;;16.95;100.00
51289;BME280;37372;52.294;5.152;2023-06-22T05:00:47;101863.91;;;16.95;100.00
51289;BME280;37372;52.294;5.152;2023-06-22T05:03:12;101865.91;;;17.00;100.00
51289;BME280;37372;52.294;5.152;2023-06-22T05:05:38;101863.50;;;17.03;100.00
51289;BME280;37372;52.294;5.152;2023-06-22T05:08:04;101864.19;;;17.11;100.00
51289;BME280;37372;52.294;5.152;2023-06-22T05:10:33;101869.56;;;17.17;100.00
51289;BME280;37372;52.294;5.152;2023-06-22T05:12:58;101862.75;;;17.25;100.00
51289;BME280;37372;52.294;5.152;2023-06-22T05:15:24;101857.06;;;17.31;100.00
51289;BME280;37372;52.294;5.152;2023-06-22T05:17:53;101861.38;;;17.39;100.00
51289;BME280;37372;52.294;5.152;2023-06-22T05:20:18;101855.41;;;17.47;100.00
51289;BME280;37372;52.294;5.152;2023-06-22T05:22:44;101858.25;;;17.52;100.00
51289;BME280;37372;52.294;5.152;2023-06-22T05:25:10;101862.72;;;17.53;100.00
51289;BME280;37372;52.294;5.152;2023-06-22T05:27:36;101858.84;;;17.54;100.00
51289;BME280;37372;52.294;5.152;2023-06-22T05:30:06;101850.59;;;17.59;100.00
51289;BME280;37372;52.294;5.152;2023-06-22T05:32:32;101848.81;;;17.70;100.00
51289;BME280;37372;52.294;5.152;2023-06-22T05:34:58;101861.78;;;17.81;100.00
51289;BME280;37372;52.294;5.152;2023-06-22T05:37:24;101861.34;;;17.90;100.00
51289;BME280;37372;52.294;5.152;2023-06-22T05:39:50;101865.88;;;17.96;100.00
51289;BME280;37372;52.294;5.152;2023-06-22T05:42:15;101869.22;;;18.14;99.27
51289;BME280;37372;52.294;5.152;2023-06-22T05:44:41;101858.81;;;18.27;98.80
51289;BME280;37372;52.294;5.152;2023-06-22T05:47:06;101867.09;;;18.44;98.10
51289;BME280;37372;52.294;5.152;2023-06-22T05:49:32;101873.38;;;18.56;98.13
51289;BME280;37372;52.294;5.152;2023-06-22T05:51:58;101875.19;;;18.67;95.89
51289;BME280;37372;52.294;5.152;2023-06-22T05:54:25;101874.13;;;18.95;94.38
51289;BME280;37372;52.294;5.152;2023-06-22T05:56:51;101874.75;;;19.02;94.07
51289;BME280;37372;52.294;5.152;2023-06-22T05:59:17;101883.78;;;19.14;93.43
51289;BME280;37372;52.294;5.152;2023-06-22T06:01:42;101880.78;;;19.21;92.75
51289;BME280;37372;52.294;5.152;2023-06-22T06:04:07;101880.88;;;19.04;92.45
51289;BME280;37372;52.294;5.152;2023-06-22T06:06:34;101882.75;;;18.93;93.85
51289;BME280;37372;52.294;5.152;2023-06-22T06:09:03;101881.84;;;18.88;93.35
51289;BME280;37372;52.294;5.152;2023-06-22T06:11:29;101884.56;;;18.83;93.24
51289;BME280;37372;52.294;5.152;2023-06-22T06:13:54;101894.56;;;18.84;94.17
51289;BME280;37372;52.294;5.152;2023-06-22T06:16:19;101880.63;;;18.79;94.33
51289;BME280;37372;52.294;5.152;2023-06-22T06:18:45;101874.00;;;18.85;93.99
51289;BME280;37372;52.294;5.152;2023-06-22T06:21:14;101881.03;;;18.92;94.22
51289;BME280;37372;52.294;5.152;2023-06-22T06:23:39;101872.97;;;18.91;93.96
51289;BME280;37372;52.294;5.152;2023-06-22T06:26:06;101874.75;;;19.02;94.20
51289;BME280;37372;52.294;5.152;2023-06-22T06:28:32;101863.72;;;19.12;93.40
51289;BME280;37372;52.294;5.152;2023-06-22T06:30:58;101867.19;;;19.25;92.28
51289;BME280;37372;52.294;5.152;2023-06-22T06:33:24;101860.22;;;19.22;92.77
51289;BME280;37372;52.294;5.152;2023-06-22T06:35:50;101857.28;;;19.07;93.66
51289;BME280;37372;52.294;5.152;2023-06-22T06:38:15;101854.03;;;19.15;92.19
51289;BME280;37372;52.294;5.152;2023-06-22T06:40:41;101855.16;;;19.19;92.43
51289;BME280;37372;52.294;5.152;2023-06-22T06:43:06;101855.31;;;19.34;92.60
51289;BME280;37372;52.294;5.152;2023-06-22T06:45:35;101854.88;;;19.47;91.70
51289;BME280;37372;52.294;5.152;2023-06-22T06:48:00;101851.97;;;19.32;91.95
51289;BME280;37372;52.294;5.152;2023-06-22T06:50:26;101852.94;;;19.48;91.67
51289;BME280;37372;52.294;5.152;2023-06-22T06:52:51;101852.19;;;19.58;91.46
51289;BME280;37372;52.294;5.152;2023-06-22T06:55:17;101855.94;;;19.73;91.35
51289;BME280;37372;52.294;5.152;2023-06-22T06:57:44;101851.75;;;19.71;89.46
51289;BME280;37372;52.294;5.152;2023-06-22T07:00:14;101855.28;;;19.61;90.09
51289;BME280;37372;52.294;5.152;2023-06-22T07:02:43;101850.81;;;19.60;90.03
51289;BME280;37372;52.294;5.152;2023-06-22T07:05:10;101858.13;;;19.66;91.04
51289;BME280;37372;52.294;5.152;2023-06-22T07:07:36;101850.25;;;19.58;90.12
51289;BME280;37372;52.294;5.152;2023-06-22T07:10:01;101850.19;;;19.53;89.54
51289;BME280;37372;52.294;5.152;2023-06-22T07:12:28;101845.63;;;19.74;88.93
51289;BME280;37372;52.294;5.152;2023-06-22T07:15:02;101848.66;;;19.67;90.34
51289;BME280;37372;52.294;5.152;2023-06-22T07:17:27;101847.94;;;19.87;88.17
51289;BME280;37372;52.294;5.152;2023-06-22T07:19:53;101845.69;;;19.79;89.20
51289;BME280;37372;52.294;5.152;2023-06-22T07:22:18;101846.22;;;19.81;87.53
51289;BME280;37372;52.294;5.152;2023-06-22T07:24:43;101837.13;;;19.91;87.75
51289;BME280;37372;52.294;5.152;2023-06-22T07:27:09;101831.25;;;19.87;87.11
51289;BME280;37372;52.294;5.152;2023-06-22T07:29:36;101830.25;;;20.09;87.21
51289;BME280;37372;52.294;5.152;2023-06-22T07:32:02;101830.88;;;20.26;85.29
51289;BME280;37372;52.294;5.152;2023-06-22T07:34:30;101827.25;;;20.25;85.34
51289;BME280;37372;52.294;5.152;2023-06-22T07:36:55;101832.34;;;20.39;84.30
51289;BME280;37372;52.294;5.152;2023-06-22T07:39:21;101829.63;;;20.49;84.38
51289;BME280;37372;52.294;5.152;2023-06-22T07:41:51;101834.09;;;20.60;85.41
51289;BME280;37372;52.294;5.152;2023-06-22T07:44:16;101833.56;;;20.63;82.80
51289;BME280;37372;52.294;5.152;2023-06-22T07:46:42;101822.16;;;20.70;82.55
51289;BME280;37372;52.294;5.152;2023-06-22T07:49:07;101833.00;;;20.56;84.19
51289;BME280;37372;52.294;5.152;2023-06-22T07:51:36;101822.44;;;20.73;83.21
51289;BME280;37372;52.294;5.152;2023-06-22T07:54:01;101820.50;;;20.74;83.66
51289;BME280;37372;52.294;5.152;2023-06-22T07:56:27;101819.13;;;20.97;82.53
51289;BME280;37372;52.294;5.152;2023-06-22T07:58:53;101824.72;;;21.02;82.95
51289;BME280;37372;52.294;5.152;2023-06-22T08:01:18;101818.31;;;21.12;80.05
51289;BME280;37372;52.294;5.152;2023-06-22T08:03:47;101820.88;;;21.28;82.22
51289;BME280;37372;52.294;5.152;2023-06-22T08:06:13;101813.59;;;21.38;80.24
51289;BME280;37372;52.294;5.152;2023-06-22T08:08:39;101816.06;;;21.19;79.06
51289;BME280;37372;52.294;5.152;2023-06-22T08:11:05;101822.81;;;21.38;81.28
51289;BME280;37372;52.294;5.152;2023-06-22T08:13:31;101823.06;;;21.62;80.62
51289;BME280;37372;52.294;5.152;2023-06-22T08:15:56;101812.44;;;21.74;80.12
51289;BME280;37372;52.294;5.152;2023-06-22T08:18:22;101801.84;;;21.66;79.13
51289;BME280;37372;52.294;5.152;2023-06-22T08:20:47;101804.38;;;21.68;80.12
51289;BME280;37372;52.294;5.152;2023-06-22T08:23:13;101797.97;;;21.26;82.02
51289;BME280;37372;52.294;5.152;2023-06-22T08:25:38;101792.97;;;21.33;82.09
51289;BME280;37372;52.294;5.152;2023-06-22T08:28:04;101787.94;;;21.30;81.57
51289;BME280;37372;52.294;5.152;2023-06-22T08:30:30;101784.28;;;21.50;79.03
51289;BME280;37372;52.294;5.152;2023-06-22T08:32:56;101782.34;;;21.41;79.63
51289;BME280;37372;52.294;5.152;2023-06-22T08:35:23;101780.38;;;21.36;79.83
51289;BME280;37372;52.294;5.152;2023-06-22T08:37:48;101782.94;;;21.32;78.86
51289;BME280;37372;52.294;5.152;2023-06-22T08:40:18;101772.81;;;21.57;78.12
51289;BME280;37372;52.294;5.152;2023-06-22T08:42:45;101767.75;;;21.69;78.68
51289;BME280;37372;52.294;5.152;2023-06-22T08:45:11;101767.22;;;21.62;76.16
51289;BME280;37372;52.294;5.152;2023-06-22T08:47:37;101772.53;;;21.69;75.52
51289;BME280;37372;52.294;5.152;2023-06-22T08:50:03;101787.56;;;21.88;76.44
51289;BME280;37372;52.294;5.152;2023-06-22T08:52:29;101778.63;;;21.81;74.16
51289;BME280;37372;52.294;5.152;2023-06-22T08:54:54;101777.19;;;21.99;76.07
51289;BME280;37372;52.294;5.152;2023-06-22T08:57:21;101762.91;;;22.15;74.08
51289;BME280;37372;52.294;5.152;2023-06-22T08:59:46;101762.53;;;22.32;75.07
51289;BME280;37372;52.294;5.152;2023-06-22T09:02:12;101765.13;;;22.19;74.87
51289;BME280;37372;52.294;5.152;2023-06-22T09:04:38;101759.84;;;22.12;73.59
51289;BME280;37372;52.294;5.152;2023-06-22T09:07:04;101753.66;;;22.20;72.40
51289;BME280;37372;52.294;5.152;2023-06-22T09:09:29;101759.72;;;22.32;73.50
51289;BME280;37372;52.294;5.152;2023-06-22T09:11:55;101759.09;;;22.46;72.85
51289;BME280;37372;52.294;5.152;2023-06-22T09:14:23;101763.22;;;22.58;72.92
51289;BME280;37372;52.294;5.152;2023-06-22T09:16:48;101760.97;;;22.60;69.63
51289;BME280;37372;52.294;5.152;2023-06-22T09:19:13;101764.31;;;22.67;70.92
51289;BME280;37372;52.294;5.152;2023-06-22T09:21:39;101754.13;;;22.87;67.84
51289;BME280;37372;52.294;5.152;2023-06-22T09:24:05;101748.25;;;23.17;67.87
51289;BME280;37372;52.294;5.152;2023-06-22T09:26:30;101752.72;;;23.18;66.47
51289;BME280;37372;52.294;5.152;2023-06-22T09:28:56;101746.25;;;22.89;65.67
51289;BME280;37372;52.294;5.152;2023-06-22T09:31:21;101741.09;;;23.06;62.84
51289;BME280;37372;52.294;5.152;2023-06-22T09:33:54;101748.72;;;22.95;64.60
51289;BME280;37372;52.294;5.152;2023-06-22T09:36:22;101751.56;;;22.85;66.41
51289;BME280;37372;52.294;5.152;2023-06-22T09:38:49;101760.25;;;22.89;67.09
51289;BME280;37372;52.294;5.152;2023-06-22T09:41:22;101760.00;;;22.80;69.13
51289;BME280;37372;52.294;5.152;2023-06-22T09:43:47;101760.13;;;23.04;68.06
51289;BME280;37372;52.294;5.152;2023-06-22T09:46:15;101757.75;;;22.87;66.47
51289;BME280;37372;52.294;5.152;2023-06-22T09:48:41;101758.59;;;23.17;66.76
51289;BME280;37372;52.294;5.152;2023-06-22T09:51:06;101764.25;;;23.12;66.00
51289;BME280;37372;52.294;5.152;2023-06-22T09:53:34;101753.75;;;23.57;64.68
51289;BME280;37372;52.294;5.152;2023-06-22T09:56:03;101753.38;;;23.39;62.60
51289;BME280;37372;52.294;5.152;2023-06-22T09:58:28;101747.88;;;23.58;61.83
51289;BME280;37372;52.294;5.152;2023-06-22T10:00:54;101740.00;;;23.60;62.64
51289;BME280;37372;52.294;5.152;2023-06-22T10:03:20;101747.97;;;23.48;61.16
51289;BME280;37372;52.294;5.152;2023-06-22T10:05:46;101743.44;;;23.23;62.94
51289;BME280;37372;52.294;5.152;2023-06-22T10:08:12;101743.22;;;23.19;64.39
51289;BME280;37372;52.294;5.152;2023-06-22T10:10:37;101736.56;;;23.10;64.20
51289;BME280;37372;52.294;5.152;2023-06-22T10:13:08;101739.13;;;23.36;64.57
51289;BME280;37372;52.294;5.152;2023-06-22T10:15:35;101738.97;;;23.22;63.87
51289;BME280;37372;52.294;5.152;2023-06-22T10:18:01;101734.22;;;23.22;63.72
51289;BME280;37372;52.294;5.152;2023-06-22T10:20:26;101731.03;;;23.34;62.75
51289;BME280;37372;52.294;5.152;2023-06-22T10:22:53;101721.25;;;23.56;61.41
51289;BME280;37372;52.294;5.152;2023-06-22T10:25:19;101727.03;;;23.40;62.70
51289;BME280;37372;52.294;5.152;2023-06-22T10:27:44;101726.09;;;23.50;63.12
51289;BME280;37372;52.294;5.152;2023-06-22T10:30:11;101721.25;;;23.56;63.40
51289;BME280;37372;52.294;5.152;2023-06-22T10:32:42;101723.00;;;23.51;62.92
51289;BME280;37372;52.294;5.152;2023-06-22T10:35:08;101717.97;;;23.77;64.25
51289;BME280;37372;52.294;5.152;2023-06-22T10:37:36;101722.97;;;24.04;63.03
51289;BME280;37372;52.294;5.152;2023-06-22T10:40:02;101721.00;;;24.24;62.68
51289;BME280;37372;52.294;5.152;2023-06-22T10:42:28;101715.88;;;23.88;62.79
51289;BME280;37372;52.294;5.152;2023-06-22T10:44:54;101721.28;;;24.03;65.29
51289;BME280;37372;52.294;5.152;2023-06-22T10:47:23;101727.31;;;24.16;67.09
51289;BME280;37372;52.294;5.152;2023-06-22T10:49:48;101727.06;;;23.88;64.49
51289;BME280;37372;52.294;5.152;2023-06-22T10:52:14;101736.09;;;24.09;65.18
51289;BME280;37372;52.294;5.152;2023-06-22T10:54:41;101735.31;;;24.03;65.04
51289;BME280;37372;52.294;5.152;2023-06-22T10:57:06;101730.66;;;23.94;66.91
51289;BME280;37372;52.294;5.152;2023-06-22T10:59:32;101734.06;;;23.67;67.22
51289;BME280;37372;52.294;5.152;2023-06-22T11:01:58;101732.47;;;23.85;67.67
51289;BME280;37372;52.294;5.152;2023-06-22T11:04:24;101738.00;;;23.90;68.39
51289;BME280;37372;52.294;5.152;2023-06-22T11:06:50;101733.75;;;23.92;68.58
51289;BME280;37372;52.294;5.152;2023-06-22T11:09:16;101746.44;;;23.61;69.48
51289;BME280;37372;52.294;5.152;2023-06-22T11:11:47;101740.38;;;23.48;69.78
51289;BME280;37372;52.294;5.152;2023-06-22T11:14:13;101736.19;;;23.51;69.44
51289;BME280;37372;52.294;5.152;2023-06-22T11:16:39;101743.31;;;23.38;71.17
51289;BME280;37372;52.294;5.152;2023-06-22T11:19:05;101740.50;;;23.38;71.92
51289;BME280;37372;52.294;5.152;2023-06-22T11:21:31;101742.88;;;23.26;70.61
51289;BME280;37372;52.294;5.152;2023-06-22T11:23:57;101738.28;;;23.35;72.11
51289;BME280;37372;52.294;5.152;2023-06-22T11:26:26;101740.84;;;23.32;72.71
51289;BME280;37372;52.294;5.152;2023-06-22T11:28:55;101745.94;;;23.54;72.76
51289;BME280;37372;52.294;5.152;2023-06-22T11:31:21;101737.41;;;23.69;72.60
51289;BME280;37372;52.294;5.152;2023-06-22T11:33:46;101742.50;;;23.62;72.39
51289;BME280;37372;52.294;5.152;2023-06-22T11:36:13;101730.28;;;23.52;72.29
51289;BME280;37372;52.294;5.152;2023-06-22T11:38:39;101727.31;;;23.68;71.09
51289;BME280;37372;52.294;5.152;2023-06-22T11:41:08;101733.78;;;23.39;71.82
51289;BME280;37372;52.294;5.152;2023-06-22T11:43:34;101727.69;;;23.56;71.51
51289;BME280;37372;52.294;5.152;2023-06-22T11:46:02;101724.06;;;23.85;70.01
51289;BME280;37372;52.294;5.152;2023-06-22T11:48:28;101707.22;;;23.61;70.04
51289;BME280;37372;52.294;5.152;2023-06-22T11:50:53;101718.88;;;23.44;71.09
51289;BME280;37372;52.294;5.152;2023-06-22T11:53:21;101712.63;;;23.52;72.33
51289;BME280;37372;52.294;5.152;2023-06-22T11:55:46;101708.25;;;23.70;70.78
51289;BME280;37372;52.294;5.152;2023-06-22T11:58:12;101703.25;;;23.67;71.82
51289;BME280;37372;52.294;5.152;2023-06-22T12:00:38;101709.53;;;23.24;72.77
51289;BME280;37372;52.294;5.152;2023-06-22T12:03:03;101703.56;;;23.07;72.32
51289;BME280;37372;52.294;5.152;2023-06-22T12:05:29;101700.03;;;23.26;70.22
51289;BME280;37372;52.294;5.152;2023-06-22T12:07:55;101700.75;;;23.36;70.55
51289;BME280;37372;52.294;5.152;2023-06-22T12:10:22;101690.03;;;23.43;66.35
51289;BME280;37372;52.294;5.152;2023-06-22T12:12:47;101687.50;;;23.18;66.55
51289;BME280;37372;52.294;5.152;2023-06-22T12:15:13;101690.53;;;23.21;67.45
51289;BME280;37372;52.294;5.152;2023-06-22T12:17:39;101678.56;;;23.16;69.27
51289;BME280;37372;52.294;5.152;2023-06-22T12:20:06;101678.16;;;22.98;66.77
51289;BME280;37372;52.294;5.152;2023-06-22T12:22:32;101670.50;;;22.80;67.94
51289;BME280;37372;52.294;5.152;2023-06-22T12:24:58;101670.75;;;22.79;69.92
51289;BME280;37372;52.294;5.152;2023-06-22T12:27:24;101674.53;;;22.64;68.60
51289;BME280;37372;52.294;5.152;2023-06-22T12:29:50;101670.75;;;22.79;68.76
51289;BME280;37372;52.294;5.152;2023-06-22T12:32:16;101674.56;;;22.59;68.80
51289;BME280;37372;52.294;5.152;2023-06-22T12:34:42;101669.69;;;22.75;67.82
51289;BME280;37372;52.294;5.152;2023-06-22T12:37:08;101662.75;;;22.67;67.27
51289;BME280;37372;52.294;5.152;2023-06-22T12:39:33;101670.38;;;22.61;68.23
51289;BME280;37372;52.294;5.152;2023-06-22T12:41:59;101671.69;;;22.69;66.30
51289;BME280;37372;52.294;5.152;2023-06-22T12:44:25;101667.38;;;22.48;67.83
51289;BME280;37372;52.294;5.152;2023-06-22T12:46:50;101667.28;;;22.24;67.98